sensor_id;sensor_type;location;lat;lon;timestamp;temperature;humidity
16479;DHT22;8350;52.316;10.530;2024-02-21T00:02:03;7.70;99.90
16479;DHT22;8350;52.316;10.530;2024-02-21T00:04:34;7.80;99.90
16479;DHT22;8350;52.316;10.530;2024-02-21T00:07:02;7.70;99.90
16479;DHT22;8350;52.316;10.530;2024-02-21T00:09:31;7.80;99.90
16479;DHT22;8350;52.316;10.530;2024-02-21T00:11:58;7.80;99.90
16479;DHT22;8350;52.316;10.530;2024-02-21T00:14:26;7.80;99.90
16479;DHT22;8350;52.316;10.530;2024-02-21T00:16:53;7.70;99.90
16479;DHT22;8350;52.316;10.530;2024-02-21T00:19:21;7.80;99.90
16479;DHT22;8350;52.316;10.530;2024-02-21T00:21:52;7.70;99.90
16479;DHT22;8350;52.316;10.530;2024-02-21T00:24:19;7.80;99.90
16479;DHT22;8350;52.316;10.530;2024-02-21T00:26:46;7.80;99.90
16479;DHT22;8350;52.316;10.530;2024-02-21T00:29:13;7.90;99.90
16479;DHT22;8350;52.316;10.530;2024-02-21T00:31:40;7.90;99.90
16479;DHT22;8350;52.316;10.530;2024-02-21T00:34:07;7.90;99.90
16479;DHT22;8350;52.316;10.530;2024-02-21T00:36:35;7.80;99.90
16479;DHT22;8350;52.316;10.530;2024-02-21T00:39:03;7.80;99.90
16479;DHT22;8350;52.316;10.530;2024-02-21T00:41:32;7.90;99.90
16479;DHT22;8350;52.316;10.530;2024-02-21T00:44:00;7.90;99.90
16479;DHT22;8350;52.316;10.530;2024-02-21T00:46:27;7.90;99.90
16479;DHT22;8350;52.316;10.530;2024-02-21T00:48:56;7.90;99.90
16479;DHT22;8350;52.316;10.530;2024-02-21T00:51:23;7.90;99.90
16479;DHT22;8350;52.316;10.530;2024-02-21T00:53:51;7.90;99.90
16479;DHT22;8350;52.316;10.530;2024-02-21T00:56:18;7.90;99.90
16479;DHT22;8350;52.316;10.530;2024-02-21T00:58:45;8.00;99.90
16479;DHT22;8350;52.316;10.530;2024-02-21T01:01:12;8.00;99.90
16479;DHT22;8350;52.316;10.530;2024-02-21T01:03:41;8.00;99.90
16479;DHT22;8350;52.316;10.530;2024-02-21T01:06:12;8.00;99.90
16479;DHT22;8350;52.316;10.530;2024-02-21T01:08:39;8.00;99.90
16479;DHT22;8350;52.316;10.530;2024-02-21T01:11:07;8.10;99.90
16479;DHT22;8350;52.316;10.530;2024-02-21T01:13:34;8.10;99.90
16479;DHT22;8350;52.316;10.530;2024-02-21T01:16:01;8.10;99.90
16479;DHT22;8350;52.316;10.530;2024-02-21T01:18:28;8.10;99.90
16479;DHT22;8350;52.316;10.530;2024-02-21T01:20:55;8.10;99.90
16479;DHT22;8350;52.316;10.530;2024-02-21T01:23:22;8.10;99.90
16479;DHT22;8350;52.316;10.530;2024-02-21T01:25:49;8.20;99.90
16479;DHT22;8350;52.316;10.530;2024-02-21T01:28:18;8.10;99.90
16479;DHT22;8350;52.316;10.530;2024-02-21T01:30:47;8.20;99.90
16479;DHT22;8350;52.316;10.530;2024-02-21T01:33:18;8.20;99.90
16479;DHT22;8350;52.316;10.530;2024-02-21T01:35:46;8.20;99.90
16479;DHT22;8350;52.316;10.530;2024-02-21T01:38:16;8.20;99.90
16479;DHT22;8350;52.316;10.530;2024-02-21T01:40:43;8.20;99.90
16479;DHT22;8350;52.316;10.530;2024-02-21T01:43:19;8.20;99.90
16479;DHT22;8350;52.316;10.530;2024-02-21T01:45:49;8.20;99.90
16479;DHT22;8350;52.316;10.530;2024-02-21T01:48:17;8.20;99.90
16479;DHT22;8350;52.316;10.530;2024-02-21T01:50:45;8.20;99.90
16479;DHT22;8350;52.316;10.530;2024-02-21T01:53:13;8.20;99.90
16479;DHT22;8350;52.316;10.530;2024-02-21T01:55:44;8.30;99.90
16479;DHT22;8350;52.316;10.530;2024-02-21T01:58:12;8.20;99.90
16479;DHT22;8350;52.316;10.530;2024-02-21T02:00:42;8.30;99.90
16479;DHT22;8350;52.316;10.530;2024-02-21T02:03:10;8.30;99.90
16479;DHT22;8350;52.316;10.530;2024-02-21T02:05:43;8.30;99.90
16479;DHT22;8350;52.316;10.530;2024-02-21T02:08:24;8.30;99.90
16479;DHT22;8350;52.316;10.530;2024-02-21T02:10:52;8.30;99.90
16479;DHT22;8350;52.316;10.530;2024-02-21T02:13:20;8.30;99.90
16479;DHT22;8350;52.316;10.530;2024-02-21T02:15:49;8.30;99.90
16479;DHT22;8350;52.316;10.530;2024-02-21T02:18:19;8.30;99.90
16479;DHT22;8350;52.316;10.530;2024-02-21T02:20:48;8.30;99.90
16479;DHT22;8350;52.316;10.530;2024-02-21T02:23:23;8.30;99.90
16479;DHT22;8350;52.316;10.530;2024-02-21T02:25:50;8.30;99.90
16479;DHT22;8350;52.316;10.530;2024-02-21T02:28:18;8.30;99.90
16479;DHT22;8350;52.316;10.530;2024-02-21T02:30:45;8.30;99.90
16479;DHT22;8350;52.316;10.530;2024-02-21T02:33:12;8.30;99.90
16479;DHT22;8350;52.316;10.530;2024-02-21T02:35:40;8.30;99.90
16479;DHT22;8350;52.316;10.530;2024-02-21T02:38:07;8.30;99.90
16479;DHT22;8350;52.316;10.530;2024-02-21T02:40:35;8.30;99.90
16479;DHT22;8350;52.316;10.530;2024-02-21T02:43:02;8.30;99.90
16479;DHT22;8350;52.316;10.530;2024-02-21T02:45:29;8.30;99.90
16479;DHT22;8350;52.316;10.530;2024-02-21T02:47:57;8.30;99.90
16479;DHT22;8350;52.316;10.530;2024-02-21T02:50:24;8.30;99.90
16479;DHT22;8350;52.316;10.530;2024-02-21T02:52:51;8.30;99.90
16479;DHT22;8350;52.316;10.530;2024-02-21T02:55:18;8.30;99.90
16479;DHT22;8350;52.316;10.530;2024-02-21T02:57:47;8.30;99.90
16479;DHT22;8350;52.316;10.530;2024-02-21T03:00:15;8.30;99.90
16479;DHT22;8350;52.316;10.530;2024-02-21T03:02:43;8.30;99.90
16479;DHT22;8350;52.316;10.530;2024-02-21T03:05:14;8.30;99.90
16479;DHT22;8350;52.316;10.530;2024-02-21T03:07:42;8.30;99.90
16479;DHT22;8350;52.316;10.530;2024-02-21T03:10:09;8.40;99.90
16479;DHT22;8350;52.316;10.530;2024-02-21T03:12:39;8.30;99.90
16479;DHT22;8350;52.316;10.530;2024-02-21T03:15:09;8.40;99.90
16479;DHT22;8350;52.316;10.530;2024-02-21T03:17:36;8.40;99.90
16479;DHT22;8350;52.316;10.530;2024-02-21T03:20:03;8.40;99.90
16479;DHT22;8350;52.316;10.530;2024-02-21T03:22:34;8.40;99.90
16479;DHT22;8350;52.316;10.530;2024-02-21T03:25:01;8.40;99.90
16479;DHT22;8350;52.316;10.530;2024-02-21T03:27:28;8.40;99.90
16479;DHT22;8350;52.316;10.530;2024-02-21T03:29:55;8.40;99.90
16479;DHT22;8350;52.316;10.530;2024-02-21T03:32:23;8.40;99.90
16479;DHT22;8350;52.316;10.530;2024-02-21T03:34:50;8.40;99.90
16479;DHT22;8350;52.316;10.530;2024-02-21T03:37:17;8.40;99.90
16479;DHT22;8350;52.316;10.530;2024-02-21T03:39:44;8.40;99.90
16479;DHT22;8350;52.316;10.530;2024-02-21T03:42:10;8.40;99.90
16479;DHT22;8350;52.316;10.530;2024-02-21T03:44:37;8.40;99.90
16479;DHT22;8350;52.316;10.530;2024-02-21T03:47:04;8.50;99.90
16479;DHT22;8350;52.316;10.530;2024-02-21T03:49:33;8.50;99.90
16479;DHT22;8350;52.316;10.530;2024-02-21T03:52:01;8.50;99.90
16479;DHT22;8350;52.316;10.530;2024-02-21T03:54:28;8.50;99.90
16479;DHT22;8350;52.316;10.530;2024-02-21T03:56:55;8.50;99.90
16479;DHT22;8350;52.316;10.530;2024-02-21T03:59:22;8.50;99.90
16479;DHT22;8350;52.316;10.530;2024-02-21T04:01:51;8.50;99.90
16479;DHT22;8350;52.316;10.530;2024-02-21T04:04:18;8.50;99.90
16479;DHT22;8350;52.316;10.530;2024-02-21T04:06:50;8.50;99.90
16479;DHT22;8350;52.316;10.530;2024-02-21T04:09:17;8.40;99.90
16479;DHT22;8350;52.316;10.530;2024-02-21T04:11:44;8.50;99.90
16479;DHT22;8350;52.316;10.530;2024-02-21T04:14:11;8.50;99.90
16479;DHT22;8350;52.316;10.530;2024-02-21T04:16:38;8.50;99.90
16479;DHT22;8350;52.316;10.530;2024-02-21T04:19:05;8.50;99.90
16479;DHT22;8350;52.316;10.530;2024-02-21T04:21:32;8.60;99.90
16479;DHT22;8350;52.316;10.530;2024-02-21T04:24:01;8.60;99.90
16479;DHT22;8350;52.316;10.530;2024-02-21T04:26:46;8.60;99.90
16479;DHT22;8350;52.316;10.530;2024-02-21T04:29:13;8.50;99.90
16479;DHT22;8350;52.316;10.530;2024-02-21T04:31:42;8.60;99.90
16479;DHT22;8350;52.316;10.530;2024-02-21T04:34:09;8.60;99.90
16479;DHT22;8350;52.316;10.530;2024-02-21T04:36:36;8.60;99.90
16479;DHT22;8350;52.316;10.530;2024-02-21T04:39:03;8.60;99.90
16479;DHT22;8350;52.316;10.530;2024-02-21T04:41:29;8.60;99.90
16479;DHT22;8350;52.316;10.530;2024-02-21T04:43:58;8.70;99.90
16479;DHT22;8350;52.316;10.530;2024-02-21T04:46:25;8.70;99.90
16479;DHT22;8350;52.316;10.530;2024-02-21T04:48:52;8.70;99.90
16479;DHT22;8350;52.316;10.530;2024-02-21T04:51:19;8.70;99.90
16479;DHT22;8350;52.316;10.530;2024-02-21T04:53:46;8.70;99.90
16479;DHT22;8350;52.316;10.530;2024-02-21T04:56:15;8.70;99.90
16479;DHT22;8350;52.316;10.530;2024-02-21T04:58:41;8.70;99.90
16479;DHT22;8350;52.316;10.530;2024-02-21T05:01:10;8.60;99.90
16479;DHT22;8350;52.316;10.530;2024-02-21T05:03:38;8.60;99.90
16479;DHT22;8350;52.316;10.530;2024-02-21T05:06:07;8.70;99.90
16479;DHT22;8350;52.316;10.530;2024-02-21T05:08:34;8.70;99.90
16479;DHT22;8350;52.316;10.530;2024-02-21T05:11:03;8.70;99.90
16479;DHT22;8350;52.316;10.530;2024-02-21T05:13:30;8.70;99.90
16479;DHT22;8350;52.316;10.530;2024-02-21T05:16:01;8.70;99.90
16479;DHT22;8350;52.316;10.530;2024-02-21T05:18:30;8.70;99.90
16479;DHT22;8350;52.316;10.530;2024-02-21T05:21:01;8.70;99.90
16479;DHT22;8350;52.316;10.530;2024-02-21T05:23:30;8.70;99.90
16479;DHT22;8350;52.316;10.530;2024-02-21T05:25:57;8.70;99.90
16479;DHT22;8350;52.316;10.530;2024-02-21T05:28:24;8.70;99.90
16479;DHT22;8350;52.316;10.530;2024-02-21T05:30:51;8.70;99.90
16479;DHT22;8350;52.316;10.530;2024-02-21T05:33:18;8.70;99.90
16479;DHT22;8350;52.316;10.530;2024-02-21T05:35:48;8.70;99.90
16479;DHT22;8350;52.316;10.530;2024-02-21T05:38:18;8.60;99.90
16479;DHT22;8350;52.316;10.530;2024-02-21T05:40:45;8.60;99.90
16479;DHT22;8350;52.316;10.530;2024-02-21T05:43:13;8.60;99.90
16479;DHT22;8350;52.316;10.530;2024-02-21T05:45:41;8.60;99.90
16479;DHT22;8350;52.316;10.530;2024-02-21T05:48:08;8.70;99.90
16479;DHT22;8350;52.316;10.530;2024-02-21T05:50:35;8.60;99.90
16479;DHT22;8350;52.316;10.530;2024-02-21T05:53:03;8.60;99.90
16479;DHT22;8350;52.316;10.530;2024-02-21T05:55:30;8.60;99.90
16479;DHT22;8350;52.316;10.530;2024-02-21T05:57:57;8.70;99.90
16479;DHT22;8350;52.316;10.530;2024-02-21T06:00:24;8.60;99.90
16479;DHT22;8350;52.316;10.530;2024-02-21T06:02:51;8.70;99.90
16479;DHT22;8350;52.316;10.530;2024-02-21T06:05:18;8.70;99.90
16479;DHT22;8350;52.316;10.530;2024-02-21T06:07:45;8.70;99.90
16479;DHT22;8350;52.316;10.530;2024-02-21T06:10:13;8.70;99.90
16479;DHT22;8350;52.316;10.530;2024-02-21T06:12:40;8.70;99.90
16479;DHT22;8350;52.316;10.530;2024-02-21T06:15:08;8.70;99.90
16479;DHT22;8350;52.316;10.530;2024-02-21T06:17:35;8.70;99.90
16479;DHT22;8350;52.316;10.530;2024-02-21T06:20:02;8.70;99.90
16479;DHT22;8350;52.316;10.530;2024-02-21T06:22:30;8.70;99.90
16479;DHT22;8350;52.316;10.530;2024-02-21T06:25:00;8.70;99.90
16479;DHT22;8350;52.316;10.530;2024-02-21T06:27:28;8.70;99.90
16479;DHT22;8350;52.316;10.530;2024-02-21T06:29:55;8.70;99.90
16479;DHT22;8350;52.316;10.530;2024-02-21T06:32:22;8.70;99.90
16479;DHT22;8350;52.316;10.530;2024-02-21T06:34:49;8.70;99.90
16479;DHT22;8350;52.316;10.530;2024-02-21T06:37:17;8.80;99.90
16479;DHT22;8350;52.316;10.530;2024-02-21T06:39:44;8.70;99.90
16479;DHT22;8350;52.316;10.530;2024-02-21T06:42:13;8.70;99.90
16479;DHT22;8350;52.316;10.530;2024-02-21T06:44:44;8.70;99.90
16479;DHT22;8350;52.316;10.530;2024-02-21T06:47:12;8.70;99.90
16479;DHT22;8350;52.316;10.530;2024-02-21T06:49:39;8.70;99.90
16479;DHT22;8350;52.316;10.530;2024-02-21T06:52:07;8.70;99.90
16479;DHT22;8350;52.316;10.530;2024-02-21T06:54:34;8.70;99.90
16479;DHT22;8350;52.316;10.530;2024-02-21T06:57:01;8.70;99.90
16479;DHT22;8350;52.316;10.530;2024-02-21T06:59:28;8.70;99.90
16479;DHT22;8350;52.316;10.530;2024-02-21T07:01:56;8.70;99.90
16479;DHT22;8350;52.316;10.530;2024-02-21T07:04:23;8.70;99.90
16479;DHT22;8350;52.316;10.530;2024-02-21T07:06:50;8.80;99.90
16479;DHT22;8350;52.316;10.530;2024-02-21T07:09:17;8.80;99.90
16479;DHT22;8350;52.316;10.530;2024-02-21T07:11:44;8.80;99.90
16479;DHT22;8350;52.316;10.530;2024-02-21T07:14:11;8.80;99.90
16479;DHT22;8350;52.316;10.530;2024-02-21T07:16:37;8.70;99.90
16479;DHT22;8350;52.316;10.530;2024-02-21T07:19:06;8.80;99.90
16479;DHT22;8350;52.316;10.530;2024-02-21T07:21:33;8.70;99.90
16479;DHT22;8350;52.316;10.530;2024-02-21T07:23:59;8.80;99.90
16479;DHT22;8350;52.316;10.530;2024-02-21T07:26:26;8.80;99.90
16479;DHT22;8350;52.316;10.530;2024-02-21T07:28:53;8.80;99.90
16479;DHT22;8350;52.316;10.530;2024-02-21T07:31:20;8.70;99.90
16479;DHT22;8350;52.316;10.530;2024-02-21T07:33:47;8.80;99.90
16479;DHT22;8350;52.316;10.530;2024-02-21T07:36:29;8.80;99.90
16479;DHT22;8350;52.316;10.530;2024-02-21T07:38:56;8.80;99.90
16479;DHT22;8350;52.316;10.530;2024-02-21T07:41:23;8.80;99.90
16479;DHT22;8350;52.316;10.530;2024-02-21T07:43:50;8.80;99.90
16479;DHT22;8350;52.316;10.530;2024-02-21T07:46:23;8.80;99.90
16479;DHT22;8350;52.316;10.530;2024-02-21T07:48:51;8.80;99.90
16479;DHT22;8350;52.316;10.530;2024-02-21T07:51:19;8.80;99.90
16479;DHT22;8350;52.316;10.530;2024-02-21T07:53:46;8.90;99.90
16479;DHT22;8350;52.316;10.530;2024-02-21T07:56:14;8.90;99.90
16479;DHT22;8350;52.316;10.530;2024-02-21T07:58:41;8.90;99.90
16479;DHT22;8350;52.316;10.530;2024-02-21T08:01:08;8.90;99.90
16479;DHT22;8350;52.316;10.530;2024-02-21T08:03:35;9.00;99.90
16479;DHT22;8350;52.316;10.530;2024-02-21T08:06:03;9.00;99.90
16479;DHT22;8350;52.316;10.530;2024-02-21T08:08:32;9.00;99.90
16479;DHT22;8350;52.316;10.530;2024-02-21T08:10:59;9.00;99.90
16479;DHT22;8350;52.316;10.530;2024-02-21T08:13:26;9.10;99.90
16479;DHT22;8350;52.316;10.530;2024-02-21T08:15:54;9.10;99.90
16479;DHT22;8350;52.316;10.530;2024-02-21T08:18:21;9.10;99.90
16479;DHT22;8350;52.316;10.530;2024-02-21T08:20:48;9.20;99.90
16479;DHT22;8350;52.316;10.530;2024-02-21T08:23:19;9.20;99.90
16479;DHT22;8350;52.316;10.530;2024-02-21T08:25:47;9.20;99.90
16479;DHT22;8350;52.316;10.530;2024-02-21T08:28:17;9.20;99.90
16479;DHT22;8350;52.316;10.530;2024-02-21T08:30:44;9.30;99.90
16479;DHT22;8350;52.316;10.530;2024-02-21T08:33:14;9.30;99.90
16479;DHT22;8350;52.316;10.530;2024-02-21T08:35:42;9.30;99.90
16479;DHT22;8350;52.316;10.530;2024-02-21T08:38:09;9.30;99.90
16479;DHT22;8350;52.316;10.530;2024-02-21T08:40:36;9.30;99.90
16479;DHT22;8350;52.316;10.530;2024-02-21T08:43:04;9.30;99.90
16479;DHT22;8350;52.316;10.530;2024-02-21T08:45:32;9.30;99.90
16479;DHT22;8350;52.316;10.530;2024-02-21T08:47:58;9.30;99.90
16479;DHT22;8350;52.316;10.530;2024-02-21T08:50:25;9.30;99.90
16479;DHT22;8350;52.316;10.530;2024-02-21T08:52:53;9.30;99.90
16479;DHT22;8350;52.316;10.530;2024-02-21T08:55:22;9.30;99.90
16479;DHT22;8350;52.316;10.530;2024-02-21T08:57:49;9.30;99.90
16479;DHT22;8350;52.316;10.530;2024-02-21T09:00:18;9.30;99.90
16479;DHT22;8350;52.316;10.530;2024-02-21T09:02:49;9.40;99.90
16479;DHT22;8350;52.316;10.530;2024-02-21T09:05:16;9.40;99.90
16479;DHT22;8350;52.316;10.530;2024-02-21T09:07:44;9.40;99.90
16479;DHT22;8350;52.316;10.530;2024-02-21T09:10:10;9.40;99.90
16479;DHT22;8350;52.316;10.530;2024-02-21T09:12:37;9.50;99.90
16479;DHT22;8350;52.316;10.530;2024-02-21T09:15:05;9.50;99.90
16479;DHT22;8350;52.316;10.530;2024-02-21T09:17:36;9.50;99.90
16479;DHT22;8350;52.316;10.530;2024-02-21T09:20:06;9.50;99.90
16479;DHT22;8350;52.316;10.530;2024-02-21T09:22:35;9.50;99.90
16479;DHT22;8350;52.316;10.530;2024-02-21T09:25:04;9.50;99.90
16479;DHT22;8350;52.316;10.530;2024-02-21T09:27:31;9.60;99.90
16479;DHT22;8350;52.316;10.530;2024-02-21T09:29:59;9.60;99.90
16479;DHT22;8350;52.316;10.530;2024-02-21T09:32:39;9.70;99.90
16479;DHT22;8350;52.316;10.530;2024-02-21T09:35:06;9.80;99.90
16479;DHT22;8350;52.316;10.530;2024-02-21T09:37:33;9.90;99.90
16479;DHT22;8350;52.316;10.530;2024-02-21T09:40:00;9.90;99.90
16479;DHT22;8350;52.316;10.530;2024-02-21T09:42:32;10.00;99.90
16479;DHT22;8350;52.316;10.530;2024-02-21T09:45:03;10.10;99.90
16479;DHT22;8350;52.316;10.530;2024-02-21T09:47:43;10.30;99.90
16479;DHT22;8350;52.316;10.530;2024-02-21T09:50:14;10.30;99.90
16479;DHT22;8350;52.316;10.530;2024-02-21T09:52:41;10.30;99.90
16479;DHT22;8350;52.316;10.530;2024-02-21T09:55:10;10.40;99.90
16479;DHT22;8350;52.316;10.530;2024-02-21T09:57:44;10.50;99.90
16479;DHT22;8350;52.316;10.530;2024-02-21T10:00:12;10.50;99.90
16479;DHT22;8350;52.316;10.530;2024-02-21T10:02:52;10.50;99.90
16479;DHT22;8350;52.316;10.530;2024-02-21T10:05:19;10.60;99.90
16479;DHT22;8350;52.316;10.530;2024-02-21T10:07:45;10.60;99.90
16479;DHT22;8350;52.316;10.530;2024-02-21T10:10:13;10.70;99.90
16479;DHT22;8350;52.316;10.530;2024-02-21T10:12:50;10.60;99.90
16479;DHT22;8350;52.316;10.530;2024-02-21T10:15:20;10.60;99.90
16479;DHT22;8350;52.316;10.530;2024-02-21T10:17:48;10.60;99.90
16479;DHT22;8350;52.316;10.530;2024-02-21T10:20:20;10.70;99.90
16479;DHT22;8350;52.316;10.530;2024-02-21T10:22:47;10.70;99.90
16479;DHT22;8350;52.316;10.530;2024-02-21T10:25:24;10.80;99.90
16479;DHT22;8350;52.316;10.530;2024-02-21T10:27:52;10.80;99.90
16479;DHT22;8350;52.316;10.530;2024-02-21T10:30:21;10.90;99.90
16479;DHT22;8350;52.316;10.530;2024-02-21T10:32:49;10.90;99.90
16479;DHT22;8350;52.316;10.530;2024-02-21T10:35:27;11.00;99.90
16479;DHT22;8350;52.316;10.530;2024-02-21T10:37:55;10.90;99.90
16479;DHT22;8350;52.316;10.530;2024-02-21T10:40:31;11.00;99.90
16479;DHT22;8350;52.316;10.530;2024-02-21T10:42:59;10.90;99.90
16479;DHT22;8350;52.316;10.530;2024-02-21T10:45:32;10.90;99.90
16479;DHT22;8350;52.316;10.530;2024-02-21T10:48:08;10.90;99.90
16479;DHT22;8350;52.316;10.530;2024-02-21T10:50:53;10.80;99.90
16479;DHT22;8350;52.316;10.530;2024-02-21T10:53:29;10.80;99.90
16479;DHT22;8350;52.316;10.530;2024-02-21T10:56:10;10.70;99.90
16479;DHT22;8350;52.316;10.530;2024-02-21T10:58:43;10.70;99.90
16479;DHT22;8350;52.316;10.530;2024-02-21T11:01:18;10.70;99.90
16479;DHT22;8350;52.316;10.530;2024-02-21T11:03:46;10.80;99.90
16479;DHT22;8350;52.316;10.530;2024-02-21T11:06:16;10.80;99.90
16479;DHT22;8350;52.316;10.530;2024-02-21T11:08:46;10.80;99.90
16479;DHT22;8350;52.316;10.530;2024-02-21T11:11:23;11.00;99.90
16479;DHT22;8350;52.316;10.530;2024-02-21T11:13:52;11.00;99.90
16479;DHT22;8350;52.316;10.530;2024-02-21T11:16:22;11.10;99.90
16479;DHT22;8350;52.316;10.530;2024-02-21T11:18:49;11.10;99.90
16479;DHT22;8350;52.316;10.530;2024-02-21T11:21:17;11.20;99.90
16479;DHT22;8350;52.316;10.530;2024-02-21T11:23:54;11.20;99.90
16479;DHT22;8350;52.316;10.530;2024-02-21T11:26:28;11.20;99.90
16479;DHT22;8350;52.316;10.530;2024-02-21T11:28:57;11.30;99.90
16479;DHT22;8350;52.316;10.530;2024-02-21T11:31:25;11.30;99.90
16479;DHT22;8350;52.316;10.530;2024-02-21T11:33:53;11.30;99.90
16479;DHT22;8350;52.316;10.530;2024-02-21T11:36:26;11.30;99.90
16479;DHT22;8350;52.316;10.530;2024-02-21T11:38:53;11.30;99.90
16479;DHT22;8350;52.316;10.530;2024-02-21T11:41:20;11.40;99.90
16479;DHT22;8350;52.316;10.530;2024-02-21T11:43:48;11.60;99.90
16479;DHT22;8350;52.316;10.530;2024-02-21T11:46:18;11.60;99.90
16479;DHT22;8350;52.316;10.530;2024-02-21T11:48:45;11.60;99.90
16479;DHT22;8350;52.316;10.530;2024-02-21T11:51:21;11.80;99.90
16479;DHT22;8350;52.316;10.530;2024-02-21T11:53:53;11.80;99.90
16479;DHT22;8350;52.316;10.530;2024-02-21T11:56:20;11.80;99.90
16479;DHT22;8350;52.316;10.530;2024-02-21T11:58:48;11.80;99.90
16479;DHT22;8350;52.316;10.530;2024-02-21T12:01:15;11.70;99.90
16479;DHT22;8350;52.316;10.530;2024-02-21T12:03:42;11.80;99.90
16479;DHT22;8350;52.316;10.530;2024-02-21T12:06:20;11.80;99.90
16479;DHT22;8350;52.316;10.530;2024-02-21T12:08:47;11.80;99.90
16479;DHT22;8350;52.316;10.530;2024-02-21T12:11:31;11.80;99.90
16479;DHT22;8350;52.316;10.530;2024-02-21T12:14:03;11.70;99.90
16479;DHT22;8350;52.316;10.530;2024-02-21T12:16:31;11.60;99.90
16479;DHT22;8350;52.316;10.530;2024-02-21T12:18:59;11.70;99.90
16479;DHT22;8350;52.316;10.530;2024-02-21T12:21:33;11.70;99.90
16479;DHT22;8350;52.316;10.530;2024-02-21T12:24:11;11.70;99.90
16479;DHT22;8350;52.316;10.530;2024-02-21T12:26:41;11.80;99.90
16479;DHT22;8350;52.316;10.530;2024-02-21T12:29:08;11.80;99.90
16479;DHT22;8350;52.316;10.530;2024-02-21T12:31:36;11.80;99.90
16479;DHT22;8350;52.316;10.530;2024-02-21T12:34:03;12.00;99.90
16479;DHT22;8350;52.316;10.530;2024-02-21T12:36:30;11.90;99.90
16479;DHT22;8350;52.316;10.530;2024-02-21T12:38:57;11.90;99.90
16479;DHT22;8350;52.316;10.530;2024-02-21T12:41:23;12.00;99.90
16479;DHT22;8350;52.316;10.530;2024-02-21T12:43:53;12.00;99.90
16479;DHT22;8350;52.316;10.530;2024-02-21T12:46:21;12.00;99.90
16479;DHT22;8350;52.316;10.530;2024-02-21T12:48:49;12.10;99.90
16479;DHT22;8350;52.316;10.530;2024-02-21T12:51:19;12.00;99.90
16479;DHT22;8350;52.316;10.530;2024-02-21T12:53:59;11.90;99.90
16479;DHT22;8350;52.316;10.530;2024-02-21T12:56:29;11.80;99.90
16479;DHT22;8350;52.316;10.530;2024-02-21T12:58:58;11.70;99.90
16479;DHT22;8350;52.316;10.530;2024-02-21T13:01:27;11.60;99.90
16479;DHT22;8350;52.316;10.530;2024-02-21T13:03:54;11.50;99.90
16479;DHT22;8350;52.316;10.530;2024-02-21T13:06:23;11.50;99.90
16479;DHT22;8350;52.316;10.530;2024-02-21T13:08:50;11.60;99.90
16479;DHT22;8350;52.316;10.530;2024-02-21T13:11:17;11.60;99.90
16479;DHT22;8350;52.316;10.530;2024-02-21T13:13:46;11.50;99.90
16479;DHT22;8350;52.316;10.530;2024-02-21T13:16:17;11.50;99.90
16479;DHT22;8350;52.316;10.530;2024-02-21T13:18:44;11.40;99.90
16479;DHT22;8350;52.316;10.530;2024-02-21T13:21:13;11.50;99.90
16479;DHT22;8350;52.316;10.530;2024-02-21T13:23:40;11.50;99.90
16479;DHT22;8350;52.316;10.530;2024-02-21T13:26:11;11.50;99.90
16479;DHT22;8350;52.316;10.530;2024-02-21T13:28:38;11.60;99.90
16479;DHT22;8350;52.316;10.530;2024-02-21T13:31:05;11.60;99.90
16479;DHT22;8350;52.316;10.530;2024-02-21T13:33:33;11.60;99.90
16479;DHT22;8350;52.316;10.530;2024-02-21T13:36:02;11.60;99.90
16479;DHT22;8350;52.316;10.530;2024-02-21T13:38:29;11.70;99.90
16479;DHT22;8350;52.316;10.530;2024-02-21T13:40:56;11.70;99.90
16479;DHT22;8350;52.316;10.530;2024-02-21T13:43:25;11.70;99.90
16479;DHT22;8350;52.316;10.530;2024-02-21T13:46:01;11.70;99.90
16479;DHT22;8350;52.316;10.530;2024-02-21T13:48:30;11.70;99.90
16479;DHT22;8350;52.316;10.530;2024-02-21T13:51:01;11.70;99.90
16479;DHT22;8350;52.316;10.530;2024-02-21T13:53:28;11.70;99.90
16479;DHT22;8350;52.316;10.530;2024-02-21T13:55:55;11.60;99.90
16479;DHT22;8350;52.316;10.530;2024-02-21T13:58:22;11.60;99.90
16479;DHT22;8350;52.316;10.530;2024-02-21T14:00:50;11.60;99.90
16479;DHT22;8350;52.316;10.530;2024-02-21T14:03:17;11.60;99.90
16479;DHT22;8350;52.316;10.530;2024-02-21T14:05:47;11.60;99.90
16479;DHT22;8350;52.316;10.530;2024-02-21T14:08:15;11.60;99.90
16479;DHT22;8350;52.316;10.530;2024-02-21T14:10:42;11.60;99.90
16479;DHT22;8350;52.316;10.530;2024-02-21T14:13:09;11.60;99.90
16479;DHT22;8350;52.316;10.530;2024-02-21T14:15:36;11.50;99.90
16479;DHT22;8350;52.316;10.530;2024-02-21T14:18:09;11.40;99.90
16479;DHT22;8350;52.316;10.530;2024-02-21T14:20:38;11.30;99.90
16479;DHT22;8350;52.316;10.530;2024-02-21T14:23:05;11.30;99.90
16479;DHT22;8350;52.316;10.530;2024-02-21T14:25:35;11.30;99.90
16479;DHT22;8350;52.316;10.530;2024-02-21T14:28:04;11.30;99.90
16479;DHT22;8350;52.316;10.530;2024-02-21T14:30:31;11.40;99.90
16479;DHT22;8350;52.316;10.530;2024-02-21T14:32:57;11.40;99.90
16479;DHT22;8350;52.316;10.530;2024-02-21T14:35:24;11.40;99.90
16479;DHT22;8350;52.316;10.530;2024-02-21T14:37:51;11.40;99.90
16479;DHT22;8350;52.316;10.530;2024-02-21T14:40:21;11.40;99.90
16479;DHT22;8350;52.316;10.530;2024-02-21T14:42:49;11.40;99.90
16479;DHT22;8350;52.316;10.530;2024-02-21T14:45:19;11.40;99.90
16479;DHT22;8350;52.316;10.530;2024-02-21T14:47:48;11.30;99.90
16479;DHT22;8350;52.316;10.530;2024-02-21T14:50:18;11.30;99.90
16479;DHT22;8350;52.316;10.530;2024-02-21T14:52:45;11.20;99.90
16479;DHT22;8350;52.316;10.530;2024-02-21T14:55:15;11.10;99.90
16479;DHT22;8350;52.316;10.530;2024-02-21T14:57:42;11.10;99.90
16479;DHT22;8350;52.316;10.530;2024-02-21T15:00:17;10.90;99.90
16479;DHT22;8350;52.316;10.530;2024-02-21T15:02:46;10.90;99.90
16479;DHT22;8350;52.316;10.530;2024-02-21T15:05:13;10.80;99.90
16479;DHT22;8350;52.316;10.530;2024-02-21T15:07:40;10.60;99.90
16479;DHT22;8350;52.316;10.530;2024-02-21T15:10:08;10.60;99.90
16479;DHT22;8350;52.316;10.530;2024-02-21T15:12:53;10.50;99.90
16479;DHT22;8350;52.316;10.530;2024-02-21T15:15:24;10.60;99.90
16479;DHT22;8350;52.316;10.530;2024-02-21T15:17:55;10.50;99.90
16479;DHT22;8350;52.316;10.530;2024-02-21T15:20:24;10.60;99.90
16479;DHT22;8350;52.316;10.530;2024-02-21T15:22:57;10.50;99.90
16479;DHT22;8350;52.316;10.530;2024-02-21T15:25:24;10.50;99.90
16479;DHT22;8350;52.316;10.530;2024-02-21T15:27:53;10.50;99.90
16479;DHT22;8350;52.316;10.530;2024-02-21T15:30:23;10.50;99.90
16479;DHT22;8350;52.316;10.530;2024-02-21T15:32:55;10.50;99.90
16479;DHT22;8350;52.316;10.530;2024-02-21T15:35:34;10.40;99.90
16479;DHT22;8350;52.316;10.530;2024-02-21T15:38:02;10.40;99.90
16479;DHT22;8350;52.316;10.530;2024-02-21T15:40:30;10.40;99.90
16479;DHT22;8350;52.316;10.530;2024-02-21T15:43:01;10.40;99.90
16479;DHT22;8350;52.316;10.530;2024-02-21T15:45:29;10.30;99.90
16479;DHT22;8350;52.316;10.530;2024-02-21T15:47:56;10.30;99.90
16479;DHT22;8350;52.316;10.530;2024-02-21T15:50:22;10.20;99.90